Terminal Aerodrome Forecast
Issued by NWS Wilmington, NC

Home | Current Version | Previous Version | Text Only | Print | Product List | Glossary On
Versions: 1 2 3 4 5 6 7 8 9 10 11 12 13
000
FTUS42 KILM 031916 AAA
TAFFLO
TAF AMD
KFLO 031916Z 0319/0418 31005KT P6SM VCTS FEW035CB BKN045 BKN200
     FM032300 20004KT P6SM VCSH SCT050 BKN080
     FM040900 VRB03KT 5SM BR SCT005 SCT080
     FM041400 VRB05KT P6SM SCT010 BKN080=

USA.gov is the U.S. government's official web portal to all federal, state and local government web resources and services.